sensor_id;sensor_type;location;lat;lon;timestamp;pressure;altitude;pressure_sealevel;temperature;humidity
50384;BME280;36301;48.310;12.786;2022-08-21T00:00:20;96300.38;;;15.76;100.00
50384;BME280;36301;48.310;12.786;2022-08-21T00:02:53;96298.09;;;15.74;100.00
50384;BME280;36301;48.310;12.786;2022-08-21T00:05:22;96296.94;;;15.75;100.00
50384;BME280;36301;48.310;12.786;2022-08-21T00:07:49;96308.78;;;15.78;100.00
50384;BME280;36301;48.310;12.786;2022-08-21T00:10:15;96308.38;;;15.76;100.00
50384;BME280;36301;48.310;12.786;2022-08-21T00:12:43;96308.78;;;15.74;100.00
50384;BME280;36301;48.310;12.786;2022-08-21T00:15:11;96299.63;;;15.75;100.00
50384;BME280;36301;48.310;12.786;2022-08-21T00:17:39;96291.25;;;15.70;100.00
50384;BME280;36301;48.310;12.786;2022-08-21T00:20:09;96300.03;;;15.74;100.00
50384;BME280;36301;48.310;12.786;2022-08-21T00:22:36;96277.19;;;15.66;100.00
50384;BME280;36301;48.310;12.786;2022-08-21T00:25:04;96292.38;;;15.76;100.00
50384;BME280;36301;48.310;12.786;2022-08-21T00:27:32;96295.81;;;15.76;100.00
50384;BME280;36301;48.310;12.786;2022-08-21T00:29:59;96287.44;;;15.71;100.00
50384;BME280;36301;48.310;12.786;2022-08-21T00:32:27;96287.81;;;15.73;100.00
50384;BME280;36301;48.310;12.786;2022-08-21T00:34:54;96284.00;;;15.74;100.00
50384;BME280;36301;48.310;12.786;2022-08-21T00:37:21;96287.81;;;15.73;100.00
50384;BME280;36301;48.310;12.786;2022-08-21T00:39:48;96285.94;;;15.70;100.00
50384;BME280;36301;48.310;12.786;2022-08-21T00:42:15;96296.59;;;15.77;100.00
50384;BME280;36301;48.310;12.786;2022-08-21T00:44:43;96288.56;;;15.77;100.00
50384;BME280;36301;48.310;12.786;2022-08-21T00:47:11;96291.19;;;15.80;100.00
50384;BME280;36301;48.310;12.786;2022-08-21T00:49:39;96289.69;;;15.79;100.00
50384;BME280;36301;48.310;12.786;2022-08-21T00:52:09;96284.72;;;15.81;100.00
50384;BME280;36301;48.310;12.786;2022-08-21T00:54:38;96291.59;;;15.82;100.00
50384;BME280;36301;48.310;12.786;2022-08-21T00:57:17;96286.63;;;15.81;100.00
50384;BME280;36301;48.310;12.786;2022-08-21T00:59:50;96287.75;;;15.83;100.00
50384;BME280;36301;48.310;12.786;2022-08-21T01:02:18;96288.50;;;15.84;100.00
50384;BME280;36301;48.310;12.786;2022-08-21T01:04:44;96274.81;;;15.78;100.00
50384;BME280;36301;48.310;12.786;2022-08-21T01:07:11;96283.94;;;15.81;100.00
50384;BME280;36301;48.310;12.786;2022-08-21T01:09:39;96276.75;;;15.78;100.00
50384;BME280;36301;48.310;12.786;2022-08-21T01:12:06;96277.09;;;15.80;100.00
50384;BME280;36301;48.310;12.786;2022-08-21T01:14:33;96280.50;;;15.84;100.00
50384;BME280;36301;48.310;12.786;2022-08-21T01:17:02;96275.56;;;15.82;100.00
50384;BME280;36301;48.310;12.786;2022-08-21T01:19:29;96271.38;;;15.81;100.00
50384;BME280;36301;48.310;12.786;2022-08-21T01:21:56;96270.59;;;15.81;100.00
50384;BME280;36301;48.310;12.786;2022-08-21T01:24:23;96277.84;;;15.84;100.00
50384;BME280;36301;48.310;12.786;2022-08-21T01:26:50;96263.75;;;15.80;100.00
50384;BME280;36301;48.310;12.786;2022-08-21T01:29:36;96260.72;;;15.78;100.00
50384;BME280;36301;48.310;12.786;2022-08-21T01:32:15;96262.59;;;15.81;100.00
50384;BME280;36301;48.310;12.786;2022-08-21T01:34:43;96262.22;;;15.79;100.00
50384;BME280;36301;48.310;12.786;2022-08-21T01:37:10;96263.00;;;15.79;100.00
50384;BME280;36301;48.310;12.786;2022-08-21T01:39:38;96263.00;;;15.79;100.00
50384;BME280;36301;48.310;12.786;2022-08-21T01:42:05;96256.91;;;15.79;100.00
50384;BME280;36301;48.310;12.786;2022-08-21T01:44:33;96263.38;;;15.81;100.00
50384;BME280;36301;48.310;12.786;2022-08-21T01:47:04;96262.97;;;15.83;100.00
50384;BME280;36301;48.310;12.786;2022-08-21T01:49:31;96265.31;;;15.77;100.00
50384;BME280;36301;48.310;12.786;2022-08-21T01:51:57;96263.00;;;15.76;100.00
50384;BME280;36301;48.310;12.786;2022-08-21T01:54:24;96259.22;;;15.73;100.00
50384;BME280;36301;48.310;12.786;2022-08-21T01:57:12;96263.81;;;15.73;100.00
50384;BME280;36301;48.310;12.786;2022-08-21T01:59:39;96256.94;;;15.72;100.00
50384;BME280;36301;48.310;12.786;2022-08-21T02:02:06;96254.66;;;15.74;100.00
50384;BME280;36301;48.310;12.786;2022-08-21T02:04:32;96255.81;;;15.69;100.00
50384;BME280;36301;48.310;12.786;2022-08-21T02:07:00;96250.88;;;15.68;100.00
50384;BME280;36301;48.310;12.786;2022-08-21T02:09:27;96248.56;;;15.70;100.00
50384;BME280;36301;48.310;12.786;2022-08-21T02:11:55;96251.66;;;15.65;100.00
50384;BME280;36301;48.310;12.786;2022-08-21T02:14:22;96244.41;;;15.62;100.00
50384;BME280;36301;48.310;12.786;2022-08-21T02:16:57;96234.91;;;15.53;100.00
50384;BME280;36301;48.310;12.786;2022-08-21T02:19:35;96247.06;;;15.62;100.00
50384;BME280;36301;48.310;12.786;2022-08-21T02:22:07;96242.88;;;15.61;100.00
50384;BME280;36301;48.310;12.786;2022-08-21T02:24:35;96247.84;;;15.58;100.00
50384;BME280;36301;48.310;12.786;2022-08-21T02:27:15;96239.47;;;15.56;100.00
50384;BME280;36301;48.310;12.786;2022-08-21T02:29:49;96241.75;;;15.54;100.00
50384;BME280;36301;48.310;12.786;2022-08-21T02:32:16;96245.22;;;15.51;100.00
50384;BME280;36301;48.310;12.786;2022-08-21T02:34:42;96239.50;;;15.53;100.00
50384;BME280;36301;48.310;12.786;2022-08-21T02:37:09;96238.34;;;15.50;100.00
50384;BME280;36301;48.310;12.786;2022-08-21T02:39:37;96242.56;;;15.51;100.00
50384;BME280;36301;48.310;12.786;2022-08-21T02:42:04;96241.03;;;15.50;100.00
50384;BME280;36301;48.310;12.786;2022-08-21T02:44:31;96239.91;;;15.48;100.00
50384;BME280;36301;48.310;12.786;2022-08-21T02:47:00;96247.91;;;15.48;100.00
50384;BME280;36301;48.310;12.786;2022-08-21T02:49:26;96247.53;;;15.46;100.00
50384;BME280;36301;48.310;12.786;2022-08-21T02:51:53;96248.31;;;15.46;100.00
50384;BME280;36301;48.310;12.786;2022-08-21T02:54:19;96243.41;;;15.38;100.00
50384;BME280;36301;48.310;12.786;2022-08-21T02:56:46;96230.81;;;15.35;100.00
50384;BME280;36301;48.310;12.786;2022-08-21T02:59:12;96245.72;;;15.32;100.00
50384;BME280;36301;48.310;12.786;2022-08-21T03:01:39;96225.94;;;15.19;100.00
50384;BME280;36301;48.310;12.786;2022-08-21T03:04:05;96249.50;;;15.35;100.00
50384;BME280;36301;48.310;12.786;2022-08-21T03:06:32;96247.97;;;15.34;100.00
50384;BME280;36301;48.310;12.786;2022-08-21T03:08:58;96248.00;;;15.30;100.00
50384;BME280;36301;48.310;12.786;2022-08-21T03:11:25;96251.41;;;15.30;100.00
50384;BME280;36301;48.310;12.786;2022-08-21T03:13:52;96246.88;;;15.27;100.00
50384;BME280;36301;48.310;12.786;2022-08-21T03:16:19;96250.69;;;15.26;100.00
50384;BME280;36301;48.310;12.786;2022-08-21T03:18:47;96259.47;;;15.23;100.00
50384;BME280;36301;48.310;12.786;2022-08-21T03:21:13;96250.31;;;15.24;100.00
50384;BME280;36301;48.310;12.786;2022-08-21T03:23:40;96248.78;;;15.23;100.00
50384;BME280;36301;48.310;12.786;2022-08-21T03:26:09;96244.63;;;15.22;100.00
50384;BME280;36301;48.310;12.786;2022-08-21T03:28:37;96251.47;;;15.23;100.00
50384;BME280;36301;48.310;12.786;2022-08-21T03:31:03;96249.56;;;15.24;100.00
50384;BME280;36301;48.310;12.786;2022-08-21T03:33:31;96244.22;;;15.24;100.00
50384;BME280;36301;48.310;12.786;2022-08-21T03:36:06;96248.78;;;15.23;100.00
50384;BME280;36301;48.310;12.786;2022-08-21T03:38:34;96238.88;;;15.20;100.00
50384;BME280;36301;48.310;12.786;2022-08-21T03:41:03;96248.78;;;15.23;100.00
50384;BME280;36301;48.310;12.786;2022-08-21T03:43:31;96248.81;;;15.20;100.00
50384;BME280;36301;48.310;12.786;2022-08-21T03:46:00;96249.97;;;15.15;100.00
50384;BME280;36301;48.310;12.786;2022-08-21T03:48:27;96252.31;;;15.06;100.00
50384;BME280;36301;48.310;12.786;2022-08-21T03:50:53;96255.34;;;15.08;100.00
50384;BME280;36301;48.310;12.786;2022-08-21T03:53:20;96254.97;;;15.06;100.00
50384;BME280;36301;48.310;12.786;2022-08-21T03:55:49;96265.59;;;15.13;100.00
50384;BME280;36301;48.310;12.786;2022-08-21T03:58:18;96262.19;;;15.16;100.00
50384;BME280;36301;48.310;12.786;2022-08-21T04:00:46;96271.28;;;15.22;100.00
50384;BME280;36301;48.310;12.786;2022-08-21T04:03:13;96273.56;;;15.24;100.00
50384;BME280;36301;48.310;12.786;2022-08-21T04:05:40;96269.38;;;15.23;100.00
50384;BME280;36301;48.310;12.786;2022-08-21T04:08:07;96267.47;;;15.27;100.00
50384;BME280;36301;48.310;12.786;2022-08-21T04:10:35;96268.97;;;15.31;100.00
50384;BME280;36301;48.310;12.786;2022-08-21T04:13:03;96269.31;;;15.34;100.00
50384;BME280;36301;48.310;12.786;2022-08-21T04:15:30;96278.06;;;15.38;100.00
50384;BME280;36301;48.310;12.786;2022-08-21T04:17:57;96275.00;;;15.39;100.00
50384;BME280;36301;48.310;12.786;2022-08-21T04:20:23;96274.63;;;15.41;100.00
50384;BME280;36301;48.310;12.786;2022-08-21T04:22:51;96272.34;;;15.43;100.00
50384;BME280;36301;48.310;12.786;2022-08-21T04:25:20;96278.41;;;15.47;100.00
50384;BME280;36301;48.310;12.786;2022-08-21T04:27:48;96271.53;;;15.46;100.00
50384;BME280;36301;48.310;12.786;2022-08-21T04:30:15;96270.03;;;15.45;100.00
50384;BME280;36301;48.310;12.786;2022-08-21T04:32:44;96284.50;;;15.47;100.00
50384;BME280;36301;48.310;12.786;2022-08-21T04:35:12;96281.84;;;15.44;100.00
50384;BME280;36301;48.310;12.786;2022-08-21T04:37:39;96290.97;;;15.50;100.00
50384;BME280;36301;48.310;12.786;2022-08-21T04:40:09;96287.94;;;15.51;100.00
50384;BME280;36301;48.310;12.786;2022-08-21T04:42:43;96292.84;;;15.56;100.00
50384;BME280;36301;48.310;12.786;2022-08-21T04:45:25;96289.38;;;15.60;100.00
50384;BME280;36301;48.310;12.786;2022-08-21T04:47:54;96286.38;;;15.57;100.00
50384;BME280;36301;48.310;12.786;2022-08-21T04:51:06;96292.47;;;15.58;100.00
50384;BME280;36301;48.310;12.786;2022-08-21T04:53:41;96296.25;;;15.64;100.00
50384;BME280;36301;48.310;12.786;2022-08-21T04:56:40;96298.91;;;15.61;100.00
50384;BME280;36301;48.310;12.786;2022-08-21T04:59:23;96292.47;;;15.58;100.00
50384;BME280;36301;48.310;12.786;2022-08-21T05:01:50;96290.53;;;15.58;100.00
50384;BME280;36301;48.310;12.786;2022-08-21T05:04:21;96297.41;;;15.67;100.00
50384;BME280;36301;48.310;12.786;2022-08-21T05:06:50;96303.09;;;15.69;100.00
50384;BME280;36301;48.310;12.786;2022-08-21T05:09:19;96309.94;;;15.70;100.00
50384;BME280;36301;48.310;12.786;2022-08-21T05:11:47;96306.13;;;15.71;100.00
50384;BME280;36301;48.310;12.786;2022-08-21T05:14:15;96306.53;;;15.69;100.00
50384;BME280;36301;48.310;12.786;2022-08-21T05:16:42;96314.88;;;15.75;100.00
50384;BME280;36301;48.310;12.786;2022-08-21T05:19:10;96312.59;;;15.77;100.00
50384;BME280;36301;48.310;12.786;2022-08-21T05:21:40;96309.16;;;15.76;100.00
50384;BME280;36301;48.310;12.786;2022-08-21T05:24:07;96314.91;;;15.71;100.00
50384;BME280;36301;48.310;12.786;2022-08-21T05:26:34;96319.84;;;15.76;100.00
50384;BME280;36301;48.310;12.786;2022-08-21T05:29:12;96321.31;;;15.81;100.00
50384;BME280;36301;48.310;12.786;2022-08-21T05:31:40;96324.78;;;15.78;100.00
50384;BME280;36301;48.310;12.786;2022-08-21T05:34:06;96328.63;;;15.77;100.00
50384;BME280;36301;48.310;12.786;2022-08-21T05:36:33;96321.72;;;15.79;100.00
50384;BME280;36301;48.310;12.786;2022-08-21T05:39:00;96323.22;;;15.80;100.00
50384;BME280;36301;48.310;12.786;2022-08-21T05:41:26;96326.31;;;15.75;100.00
50384;BME280;36301;48.310;12.786;2022-08-21T05:43:53;96322.13;;;15.71;100.00
50384;BME280;36301;48.310;12.786;2022-08-21T05:46:19;96339.25;;;15.80;100.00
50384;BME280;36301;48.310;12.786;2022-08-21T05:48:46;96336.56;;;15.84;100.00
50384;BME280;36301;48.310;12.786;2022-08-21T05:51:14;96344.94;;;15.90;100.00
50384;BME280;36301;48.310;12.786;2022-08-21T05:53:42;96332.75;;;15.85;100.00
50384;BME280;36301;48.310;12.786;2022-08-21T05:56:10;96332.75;;;15.85;100.00
50384;BME280;36301;48.310;12.786;2022-08-21T05:58:37;96333.84;;;15.91;100.00
50384;BME280;36301;48.310;12.786;2022-08-21T06:01:04;96331.66;;;15.79;100.00
50384;BME280;36301;48.310;12.786;2022-08-21T06:03:33;96337.75;;;15.79;100.00
50384;BME280;36301;48.310;12.786;2022-08-21T06:06:01;96336.97;;;15.82;100.00
50384;BME280;36301;48.310;12.786;2022-08-21T06:08:28;96339.25;;;15.80;100.00
50384;BME280;36301;48.310;12.786;2022-08-21T06:10:57;96330.81;;;15.89;100.00
50384;BME280;36301;48.310;12.786;2022-08-21T06:13:24;96328.13;;;15.93;100.00
50384;BME280;36301;48.310;12.786;2022-08-21T06:16:01;96343.34;;;15.99;100.00
50384;BME280;36301;48.310;12.786;2022-08-21T06:18:28;96339.91;;;16.02;100.00
50384;BME280;36301;48.310;12.786;2022-08-21T06:20:54;96341.41;;;16.07;100.00
50384;BME280;36301;48.310;12.786;2022-08-21T06:23:23;96344.78;;;16.11;100.00
50384;BME280;36301;48.310;12.786;2022-08-21T06:25:58;96338.34;;;16.08;100.00
50384;BME280;36301;48.310;12.786;2022-08-21T06:28:25;96339.09;;;16.09;100.00
50384;BME280;36301;48.310;12.786;2022-08-21T06:30:51;96355.81;;;16.17;100.00
50384;BME280;36301;48.310;12.786;2022-08-21T06:33:18;96347.00;;;16.23;100.00
50384;BME280;36301;48.310;12.786;2022-08-21T06:35:45;96340.09;;;16.26;100.00
50384;BME280;36301;48.310;12.786;2022-08-21T06:38:12;96347.38;;;16.25;100.00
50384;BME280;36301;48.310;12.786;2022-08-21T06:40:38;96340.09;;;16.29;100.00
50384;BME280;36301;48.310;12.786;2022-08-21T06:43:14;96348.03;;;16.37;100.00
50384;BME280;36301;48.310;12.786;2022-08-21T06:45:42;96342.66;;;16.44;100.00
50384;BME280;36301;48.310;12.786;2022-08-21T06:48:09;96339.16;;;16.54;100.00
50384;BME280;36301;48.310;12.786;2022-08-21T06:50:38;96331.03;;;16.65;100.00
50384;BME280;36301;48.310;12.786;2022-08-21T06:53:08;96338.91;;;16.82;100.00
50384;BME280;36301;48.310;12.786;2022-08-21T06:55:37;96339.28;;;16.84;100.00
50384;BME280;36301;48.310;12.786;2022-08-21T06:58:04;96337.69;;;16.91;100.00
50384;BME280;36301;48.310;12.786;2022-08-21T07:00:31;96346.03;;;16.96;100.00
50384;BME280;36301;48.310;12.786;2022-08-21T07:02:58;96336.41;;;17.02;100.00
50384;BME280;36301;48.310;12.786;2022-08-21T07:05:26;96326.00;;;17.11;100.00
50384;BME280;36301;48.310;12.786;2022-08-21T07:07:53;96338.09;;;17.23;100.00
50384;BME280;36301;48.310;12.786;2022-08-21T07:10:20;96338.16;;;17.20;100.00
50384;BME280;36301;48.310;12.786;2022-08-21T07:12:48;96330.16;;;17.16;100.00
50384;BME280;36301;48.310;12.786;2022-08-21T07:15:17;96333.78;;;17.33;100.00
50384;BME280;36301;48.310;12.786;2022-08-21T07:17:44;96332.75;;;17.23;100.00
50384;BME280;36301;48.310;12.786;2022-08-21T07:20:11;96344.69;;;17.15;100.00
50384;BME280;36301;48.310;12.786;2022-08-21T07:22:38;96333.78;;;16.99;100.00
50384;BME280;36301;48.310;12.786;2022-08-21T07:25:07;96339.53;;;16.97;100.00
50384;BME280;36301;48.310;12.786;2022-08-21T07:27:33;96339.19;;;16.92;100.00
50384;BME280;36301;48.310;12.786;2022-08-21T07:30:00;96343.75;;;16.95;100.00
50384;BME280;36301;48.310;12.786;2022-08-21T07:32:26;96339.16;;;16.95;100.00
50384;BME280;36301;48.310;12.786;2022-08-21T07:34:53;96339.84;;;17.03;100.00
50384;BME280;36301;48.310;12.786;2022-08-21T07:37:19;96336.41;;;17.02;100.00
50384;BME280;36301;48.310;12.786;2022-08-21T07:39:46;96334.03;;;17.11;100.00
50384;BME280;36301;48.310;12.786;2022-08-21T07:42:15;96336.97;;;17.24;100.00
50384;BME280;36301;48.310;12.786;2022-08-21T07:44:42;96339.63;;;17.24;100.00
50384;BME280;36301;48.310;12.786;2022-08-21T07:47:09;96338.88;;;17.24;100.00
50384;BME280;36301;48.310;12.786;2022-08-21T07:49:35;96336.88;;;17.31;100.00
50384;BME280;36301;48.310;12.786;2022-08-21T07:52:02;96338.00;;;17.34;100.00
50384;BME280;36301;48.310;12.786;2022-08-21T07:54:29;96334.78;;;17.46;100.00
50384;BME280;36301;48.310;12.786;2022-08-21T07:57:01;96341.00;;;17.40;100.00
50384;BME280;36301;48.310;12.786;2022-08-21T07:59:28;96332.38;;;17.55;100.00
50384;BME280;36301;48.310;12.786;2022-08-21T08:01:54;96329.69;;;17.89;100.00
50384;BME280;36301;48.310;12.786;2022-08-21T08:04:21;96344.53;;;18.21;100.00
50384;BME280;36301;48.310;12.786;2022-08-21T08:06:52;96331.06;;;18.25;100.00
50384;BME280;36301;48.310;12.786;2022-08-21T08:09:18;96345.34;;;18.69;100.00
50384;BME280;36301;48.310;12.786;2022-08-21T08:11:46;96339.97;;;18.69;98.23
50384;BME280;36301;48.310;12.786;2022-08-21T08:14:12;96343.22;;;18.56;99.49
50384;BME280;36301;48.310;12.786;2022-08-21T08:16:39;96344.06;;;18.50;97.73
50384;BME280;36301;48.310;12.786;2022-08-21T08:19:05;96340.13;;;18.58;98.25
50384;BME280;36301;48.310;12.786;2022-08-21T08:21:33;96342.41;;;18.83;97.13
50384;BME280;36301;48.310;12.786;2022-08-21T08:24:00;96340.94;;;19.02;96.15
50384;BME280;36301;48.310;12.786;2022-08-21T08:26:45;96341.69;;;19.02;96.56
50384;BME280;36301;48.310;12.786;2022-08-21T08:29:18;96318.56;;;19.08;93.76
50384;BME280;36301;48.310;12.786;2022-08-21T08:31:45;96337.63;;;19.54;92.49
50384;BME280;36301;48.310;12.786;2022-08-21T08:34:12;96337.09;;;19.99;90.13
50384;BME280;36301;48.310;12.786;2022-08-21T08:36:51;96330.84;;;20.54;85.74
50384;BME280;36301;48.310;12.786;2022-08-21T08:39:18;96325.84;;;20.36;86.62
50384;BME280;36301;48.310;12.786;2022-08-21T08:42:07;96341.31;;;20.32;85.09
50384;BME280;36301;48.310;12.786;2022-08-21T08:45:03;96332.72;;;20.05;87.34
50384;BME280;36301;48.310;12.786;2022-08-21T08:47:32;96343.66;;;20.14;86.48
50384;BME280;36301;48.310;12.786;2022-08-21T08:52:36;96349.38;;;20.16;86.26
50384;BME280;36301;48.310;12.786;2022-08-21T08:55:12;96349.16;;;20.43;83.66
50384;BME280;36301;48.310;12.786;2022-08-21T08:57:44;96347.22;;;20.43;86.16
50384;BME280;36301;48.310;12.786;2022-08-21T09:00:18;96353.69;;;20.30;83.38
50384;BME280;36301;48.310;12.786;2022-08-21T09:02:46;96355.84;;;20.02;85.53
50384;BME280;36301;48.310;12.786;2022-08-21T09:06:09;96350.47;;;20.02;86.18
50384;BME280;36301;48.310;12.786;2022-08-21T09:11:03;96348.19;;;20.01;87.37
50384;BME280;36301;48.310;12.786;2022-08-21T09:21:49;96346.63;;;21.14;82.66
50384;BME280;36301;48.310;12.786;2022-08-21T09:24:49;96342.47;;;21.25;79.95
50384;BME280;36301;48.310;12.786;2022-08-21T09:27:21;96339.22;;;20.72;83.37
50384;BME280;36301;48.310;12.786;2022-08-21T09:29:52;96351.66;;;20.83;81.06
50384;BME280;36301;48.310;12.786;2022-08-21T09:35:15;96342.78;;;20.69;80.50
50384;BME280;36301;48.310;12.786;2022-08-21T09:38:00;96336.31;;;21.54;79.89
50384;BME280;36301;48.310;12.786;2022-08-21T09:45:42;96334.28;;;22.60;73.94
50384;BME280;36301;48.310;12.786;2022-08-21T09:50:42;96335.81;;;21.72;77.75
50384;BME280;36301;48.310;12.786;2022-08-21T09:58:39;96324.72;;;22.94;71.11
50384;BME280;36301;48.310;12.786;2022-08-21T10:01:13;96334.78;;;23.59;69.80
50384;BME280;36301;48.310;12.786;2022-08-21T10:03:40;96330.94;;;23.69;68.10
50384;BME280;36301;48.310;12.786;2022-08-21T10:06:08;96332.63;;;23.54;66.78
50384;BME280;36301;48.310;12.786;2022-08-21T10:08:39;96322.66;;;23.95;67.94
50384;BME280;36301;48.310;12.786;2022-08-21T10:11:09;96328.91;;;22.47;71.18
50384;BME280;36301;48.310;12.786;2022-08-21T10:22:46;96328.56;;;21.69;75.17
50384;BME280;36301;48.310;12.786;2022-08-21T10:25:21;96329.47;;;22.04;74.23
50384;BME280;36301;48.310;12.786;2022-08-21T10:30:56;96327.19;;;22.53;71.95
50384;BME280;36301;48.310;12.786;2022-08-21T10:33:44;96322.53;;;23.01;69.94
50384;BME280;36301;48.310;12.786;2022-08-21T10:36:17;96320.97;;;22.91;71.60
50384;BME280;36301;48.310;12.786;2022-08-21T10:38:58;96320.44;;;22.23;73.89
50384;BME280;36301;48.310;12.786;2022-08-21T10:45:05;96314.47;;;22.03;73.40
50384;BME280;36301;48.310;12.786;2022-08-21T10:47:40;96315.22;;;22.03;72.05
50384;BME280;36301;48.310;12.786;2022-08-21T10:50:10;96310.03;;;22.47;73.77
50384;BME280;36301;48.310;12.786;2022-08-21T10:55:38;96302.88;;;22.66;69.31
50384;BME280;36301;48.310;12.786;2022-08-21T10:58:22;96293.44;;;22.23;72.41
50384;BME280;36301;48.310;12.786;2022-08-21T11:00:56;96304.66;;;22.35;73.21
50384;BME280;36301;48.310;12.786;2022-08-21T11:06:06;96300.25;;;23.32;71.66
50384;BME280;36301;48.310;12.786;2022-08-21T11:08:42;96300.41;;;23.38;69.33
50384;BME280;36301;48.310;12.786;2022-08-21T11:11:18;96293.50;;;22.58;69.37
50384;BME280;36301;48.310;12.786;2022-08-21T11:14:01;96290.69;;;22.96;69.21
50384;BME280;36301;48.310;12.786;2022-08-21T11:19:24;96287.34;;;23.36;70.48
50384;BME280;36301;48.310;12.786;2022-08-21T11:22:06;96277.97;;;23.50;67.97
50384;BME280;36301;48.310;12.786;2022-08-21T11:27:28;96280.72;;;23.59;67.44
50384;BME280;36301;48.310;12.786;2022-08-21T11:30:00;96289.16;;;23.39;69.10
50384;BME280;36301;48.310;12.786;2022-08-21T11:32:40;96282.72;;;22.93;68.19
50384;BME280;36301;48.310;12.786;2022-08-21T11:38:16;96268.91;;;22.56;68.72
50384;BME280;36301;48.310;12.786;2022-08-21T11:40:54;96269.28;;;22.67;68.74
50384;BME280;36301;48.310;12.786;2022-08-21T11:43:37;96265.97;;;22.85;70.52
50384;BME280;36301;48.310;12.786;2022-08-21T11:54:47;96255.16;;;22.63;67.94
50384;BME280;36301;48.310;12.786;2022-08-21T11:57:20;96249.69;;;22.54;67.85
50384;BME280;36301;48.310;12.786;2022-08-21T12:00:16;96236.25;;;22.63;69.28
50384;BME280;36301;48.310;12.786;2022-08-21T12:02:50;96249.56;;;22.79;66.60
50384;BME280;36301;48.310;12.786;2022-08-21T12:05:32;96241.44;;;23.14;68.17
50384;BME280;36301;48.310;12.786;2022-08-21T12:08:13;96232.94;;;23.25;67.21
50384;BME280;36301;48.310;12.786;2022-08-21T12:10:46;96233.34;;;23.45;66.57
50384;BME280;36301;48.310;12.786;2022-08-21T12:13:26;96230.13;;;23.28;64.77
50384;BME280;36301;48.310;12.786;2022-08-21T12:16:14;96229.53;;;23.34;65.42
50384;BME280;36301;48.310;12.786;2022-08-21T12:18:42;96232.34;;;23.61;65.46
50384;BME280;36301;48.310;12.786;2022-08-21T12:21:27;96231.25;;;23.80;64.64
50384;BME280;36301;48.310;12.786;2022-08-21T12:26:52;96236.78;;;23.68;61.56
50384;BME280;36301;48.310;12.786;2022-08-21T12:29:28;96221.84;;;23.94;61.98
50384;BME280;36301;48.310;12.786;2022-08-21T12:32:23;96224.41;;;24.07;62.81
50384;BME280;36301;48.310;12.786;2022-08-21T12:34:55;96214.63;;;23.91;63.52
50384;BME280;36301;48.310;12.786;2022-08-21T12:37:34;96210.81;;;23.39;64.65
50384;BME280;36301;48.310;12.786;2022-08-21T12:40:10;96222.88;;;23.56;63.15
50384;BME280;36301;48.310;12.786;2022-08-21T12:42:41;96214.94;;;23.53;60.32
50384;BME280;36301;48.310;12.786;2022-08-21T12:45:23;96208.78;;;24.02;60.95
50384;BME280;36301;48.310;12.786;2022-08-21T12:47:59;96213.44;;;24.01;61.83
50384;BME280;36301;48.310;12.786;2022-08-21T12:53:11;96202.72;;;24.38;61.04
50384;BME280;36301;48.310;12.786;2022-08-21T12:55:46;96191.84;;;24.47;58.06
50384;BME280;36301;48.310;12.786;2022-08-21T12:58:23;96192.47;;;24.42;57.64
50384;BME280;36301;48.310;12.786;2022-08-21T13:00:53;96195.31;;;24.75;59.00
50384;BME280;36301;48.310;12.786;2022-08-21T13:03:22;96185.97;;;24.76;59.27
50384;BME280;36301;48.310;12.786;2022-08-21T13:05:50;96189.25;;;25.08;57.59
50384;BME280;36301;48.310;12.786;2022-08-21T13:08:20;96187.47;;;24.87;56.74
50384;BME280;36301;48.310;12.786;2022-08-21T13:10:49;96191.34;;;25.04;56.18
50384;BME280;36301;48.310;12.786;2022-08-21T13:13:26;96175.44;;;24.88;54.64
50384;BME280;36301;48.310;12.786;2022-08-21T13:16:12;96171.84;;;24.81;55.11
50384;BME280;36301;48.310;12.786;2022-08-21T13:19:16;96171.50;;;24.98;56.05
50384;BME280;36301;48.310;12.786;2022-08-21T13:21:41;96161.84;;;25.06;56.12
50384;BME280;36301;48.310;12.786;2022-08-21T13:24:23;96167.31;;;24.88;53.03
50384;BME280;36301;48.310;12.786;2022-08-21T13:27:21;96163.25;;;24.83;53.94
50384;BME280;36301;48.310;12.786;2022-08-21T13:29:48;96172.56;;;24.82;53.62
50384;BME280;36301;48.310;12.786;2022-08-21T13:32:27;96171.69;;;24.67;52.97
50384;BME280;36301;48.310;12.786;2022-08-21T13:34:58;96163.44;;;24.52;54.21
50384;BME280;36301;48.310;12.786;2022-08-21T13:37:26;96157.41;;;24.66;55.04
50384;BME280;36301;48.310;12.786;2022-08-21T13:39:55;96157.41;;;24.75;54.01
50384;BME280;36301;48.310;12.786;2022-08-21T13:42:21;96149.22;;;25.12;54.53
50384;BME280;36301;48.310;12.786;2022-08-21T13:44:52;96155.78;;;25.29;52.23
50384;BME280;36301;48.310;12.786;2022-08-21T13:47:20;96153.84;;;25.21;52.73
50384;BME280;36301;48.310;12.786;2022-08-21T13:49:48;96151.63;;;25.01;50.80
50384;BME280;36301;48.310;12.786;2022-08-21T13:52:19;96145.16;;;24.98;52.77
50384;BME280;36301;48.310;12.786;2022-08-21T13:54:55;96159.28;;;25.02;52.79
50384;BME280;36301;48.310;12.786;2022-08-21T13:57:30;96151.50;;;24.95;51.11
50384;BME280;36301;48.310;12.786;2022-08-21T14:00:29;96149.53;;;24.96;51.88
50384;BME280;36301;48.310;12.786;2022-08-21T14:03:08;96148.88;;;25.19;51.10
50384;BME280;36301;48.310;12.786;2022-08-21T14:05:38;96150.78;;;24.67;50.93
50384;BME280;36301;48.310;12.786;2022-08-21T14:08:15;96149.88;;;24.79;50.88
50384;BME280;36301;48.310;12.786;2022-08-21T14:10:55;96140.84;;;24.82;50.35
50384;BME280;36301;48.310;12.786;2022-08-21T14:13:44;96149.44;;;24.63;51.87
50384;BME280;36301;48.310;12.786;2022-08-21T14:16:21;96148.34;;;24.78;52.01